createdAt,value
2023-03-13T00:01:13.529Z,99884.50
2023-03-13T00:03:41.612Z,99878.44
2023-03-13T00:06:11.168Z,99890.94
2023-03-13T00:08:39.428Z,99876.25
2023-03-13T00:11:09.102Z,99879.31
2023-03-13T00:13:37.222Z,99886.38
2023-03-13T00:16:07.176Z,99885.22
2023-03-13T00:18:35.627Z,99883.50
2023-03-13T00:21:05.171Z,99856.00
2023-03-13T00:23:36.167Z,99878.81
2023-03-13T00:26:06.347Z,99877.13
2023-03-13T00:28:36.294Z,99877.94
2023-03-13T00:31:05.816Z,99877.13
2023-03-13T00:33:34.576Z,99861.94
2023-03-13T00:36:03.693Z,99860.97
2023-03-13T00:38:32.183Z,99855.88
2023-03-13T00:41:03.097Z,99856.22
2023-03-13T00:43:31.440Z,99858.94
2023-03-13T00:45:59.464Z,99854.53
2023-03-13T00:48:27.594Z,99855.56
2023-03-13T00:50:56.277Z,99852.88
2023-03-13T00:53:24.724Z,99847.47
2023-03-13T00:55:54.357Z,99847.47
2023-03-13T00:58:24.841Z,99843.75
2023-03-13T01:00:53.185Z,99845.78
2023-03-13T01:03:22.095Z,99841.38
2023-03-13T01:05:57.282Z,99832.47
2023-03-13T01:08:27.864Z,99827.41
2023-03-13T01:10:59.848Z,99804.25
2023-03-13T01:13:29.578Z,99824.19
2023-03-13T01:15:58.936Z,99820.81
2023-03-13T01:18:27.020Z,99802.59
2023-03-13T01:20:55.068Z,99807.66
2023-03-13T01:23:23.085Z,99805.97
2023-03-13T01:25:50.952Z,99794.34
2023-03-13T01:28:19.141Z,99799.75
2023-03-13T01:30:48.568Z,99796.22
2023-03-13T01:33:16.804Z,99795.34
2023-03-13T01:35:44.933Z,99791.28
2023-03-13T01:38:14.716Z,99787.59
2023-03-13T01:40:43.192Z,99757.19
2023-03-13T01:43:26.384Z,99785.06
2023-03-13T01:46:02.042Z,99785.22
2023-03-13T01:48:44.266Z,99780.88
2023-03-13T01:51:17.820Z,99788.94
2023-03-13T01:53:50.136Z,99785.41
2023-03-13T01:56:22.509Z,99771.56
2023-03-13T01:58:53.511Z,99775.47
2023-03-13T02:01:24.714Z,99770.91
2023-03-13T02:03:53.713Z,99768.38
2023-03-13T02:06:21.806Z,99760.31
2023-03-13T02:08:54.473Z,99759.31
2023-03-13T02:11:30.730Z,99767.22
2023-03-13T02:14:00.321Z,99759.31
2023-03-13T02:16:30.334Z,99750.19
2023-03-13T02:18:58.282Z,99747.66
2023-03-13T02:21:42.420Z,99747.66
2023-03-13T02:24:19.359Z,99741.44
2023-03-13T02:26:48.818Z,99728.94
2023-03-13T02:29:19.165Z,99740.75
2023-03-13T02:31:48.470Z,99728.47
2023-03-13T02:34:22.078Z,99724.41
2023-03-13T02:36:51.133Z,99731.81
2023-03-13T02:39:24.574Z,99728.28
2023-03-13T02:41:55.198Z,99737.22
2023-03-13T02:44:23.380Z,99741.75
2023-03-13T02:46:53.381Z,99749.84
2023-03-13T02:49:27.552Z,99754.75
2023-03-13T02:51:58.950Z,99750.03
2023-03-13T02:54:31.703Z,99731.63
2023-03-13T02:57:04.125Z,99735.03
2023-03-13T02:59:32.845Z,99728.78
2023-03-13T03:02:00.918Z,99720.72
2023-03-13T03:04:28.905Z,99717.31
2023-03-13T03:06:57.617Z,99728.47
2023-03-13T03:09:26.346Z,99726.63
2023-03-13T03:11:58.934Z,99719.34
2023-03-13T03:14:30.766Z,99719.22
2023-03-13T03:16:58.823Z,99718.34
2023-03-13T03:19:28.024Z,99709.28
2023-03-13T03:21:56.035Z,99710.28
2023-03-13T03:24:23.924Z,99709.41
2023-03-13T03:26:52.014Z,99712.78
2023-03-13T03:29:28.760Z,99707.56
2023-03-13T03:31:59.404Z,99707.41
2023-03-13T03:34:27.602Z,99714.66
2023-03-13T03:36:56.964Z,99710.94
2023-03-13T03:39:24.944Z,99708.25
2023-03-13T03:41:52.916Z,99703.72
2023-03-13T03:44:22.064Z,99698.31
2023-03-13T03:46:55.851Z,99698.13
2023-03-13T03:49:26.509Z,99696.28
2023-03-13T03:51:54.820Z,99698.13
2023-03-13T03:54:29.380Z,99696.47
2023-03-13T03:56:57.669Z,99699.16
2023-03-13T03:59:25.980Z,99684.16
2023-03-13T04:01:59.245Z,99690.22
2023-03-13T04:04:31.264Z,99689.25
2023-03-13T04:07:06.981Z,99681.28
2023-03-13T04:09:35.770Z,99674.25
2023-03-13T04:12:05.612Z,99681.28
2023-03-13T04:14:37.895Z,99665.13
2023-03-13T04:17:08.541Z,99652.31
2023-03-13T04:19:37.950Z,99652.31
2023-03-13T04:22:06.171Z,99646.13
2023-03-13T04:24:34.320Z,99643.41
2023-03-13T04:27:03.681Z,99644.09
2023-03-13T04:29:32.193Z,99628.06
2023-03-13T04:32:29.497Z,99622.53
2023-03-13T04:35:19.050Z,99606.19
2023-03-13T04:38:16.496Z,99605.34
2023-03-13T04:41:08.026Z,99601.81
2023-03-13T04:43:45.932Z,99601.81
2023-03-13T04:46:32.476Z,99600.97
2023-03-13T04:49:29.817Z,99580.75
2023-03-13T04:52:11.617Z,99595.06
2023-03-13T04:54:57.989Z,99589.00
2023-03-13T04:57:40.202Z,99581.59
2023-03-13T05:00:43.921Z,99537.13
2023-03-13T05:03:42.072Z,99565.41
2023-03-13T05:06:22.885Z,99550.09
2023-03-13T05:08:58.028Z,99548.06
2023-03-13T05:11:55.976Z,99567.13
2023-03-13T05:14:43.675Z,99559.69
2023-03-13T05:17:32.194Z,99557.84
2023-03-13T05:20:18.497Z,99549.75
2023-03-13T05:22:55.032Z,99546.22
2023-03-13T05:25:36.830Z,99548.59
2023-03-13T05:28:28.314Z,99538.78
2023-03-13T05:31:10.854Z,99530.72
2023-03-13T05:34:07.784Z,99499.44
2023-03-13T05:36:58.567Z,99524.31
2023-03-13T05:39:55.546Z,99516.25
2023-03-13T05:42:48.178Z,99507.13
2023-03-13T05:45:41.796Z,99487.78
2023-03-13T05:48:25.459Z,99502.75
2023-03-13T05:51:15.862Z,99504.59
2023-03-13T05:54:00.593Z,99496.34
2023-03-13T05:57:00.775Z,99490.13
2023-03-13T05:59:46.626Z,99488.94
2023-03-13T06:02:33.560Z,99481.88
2023-03-13T06:05:02.748Z,99471.28
2023-03-13T06:07:30.776Z,99482.53
2023-03-13T06:09:58.972Z,99483.22
2023-03-13T06:12:27.045Z,99477.81
2023-03-13T06:14:56.378Z,99466.19
2023-03-13T06:17:31.748Z,99444.66
2023-03-13T06:19:59.739Z,99459.44
2023-03-13T06:22:27.629Z,99458.25
2023-03-13T06:24:56.388Z,99451.66
2023-03-13T06:27:24.372Z,99448.63
2023-03-13T06:29:52.358Z,99442.22
2023-03-13T06:32:21.687Z,99437.50
2023-03-13T06:34:49.733Z,99433.59
2023-03-13T06:37:17.881Z,99412.25
2023-03-13T06:39:45.874Z,99420.97
2023-03-13T06:42:13.785Z,99425.19
2023-03-13T06:44:42.065Z,99417.75
2023-03-13T06:47:10.144Z,99412.34
2023-03-13T06:49:39.484Z,99412.84
2023-03-13T06:52:07.440Z,99395.97
2023-03-13T06:54:35.347Z,99385.34
2023-03-13T06:57:03.324Z,99375.41
2023-03-13T06:59:31.218Z,99374.38
2023-03-13T07:01:59.216Z,99343.75
2023-03-13T07:04:27.210Z,99359.03
2023-03-13T07:06:56.634Z,99353.00
2023-03-13T07:09:24.644Z,99338.91
2023-03-13T07:11:52.625Z,99367.47
2023-03-13T07:14:20.619Z,99352.13
2023-03-13T07:16:48.662Z,99336.97
2023-03-13T07:19:17.157Z,99333.25
2023-03-13T07:21:45.152Z,99327.03
2023-03-13T07:24:14.572Z,99318.94
2023-03-13T07:26:51.167Z,99306.31
2023-03-13T07:29:22.446Z,99301.75
2023-03-13T07:31:50.684Z,99298.88
2023-03-13T07:34:18.704Z,99304.09
2023-03-13T07:36:46.786Z,99305.75
2023-03-13T07:39:16.074Z,99300.00
2023-03-13T07:41:44.094Z,99289.88
2023-03-13T07:44:17.076Z,99278.75
2023-03-13T07:46:46.041Z,99282.09
2023-03-13T07:49:13.946Z,99273.19
2023-03-13T07:51:44.261Z,99247.03
2023-03-13T07:54:12.750Z,99250.59
2023-03-13T07:56:42.121Z,99234.75
2023-03-13T07:59:10.351Z,99219.91
2023-03-13T08:01:38.254Z,99205.59
2023-03-13T08:04:06.676Z,99202.81
2023-03-13T08:06:36.685Z,99194.81
2023-03-13T08:09:05.596Z,99205.91
2023-03-13T08:11:33.900Z,99199.31
2023-03-13T08:14:03.387Z,99200.97
2023-03-13T08:16:34.267Z,99179.38
2023-03-13T08:19:05.177Z,99178.19
2023-03-13T08:21:34.487Z,99178.38
2023-03-13T08:24:06.046Z,99170.75
2023-03-13T08:26:35.489Z,99171.94
2023-03-13T08:29:07.083Z,99171.13
2023-03-13T08:31:36.545Z,99159.66
2023-03-13T08:34:05.157Z,99151.75
2023-03-13T08:36:35.149Z,99150.06
2023-03-13T08:39:05.850Z,99149.06
2023-03-13T08:41:36.145Z,99136.88
2023-03-13T08:44:06.240Z,99133.63
2023-03-13T08:46:36.353Z,99127.03
2023-03-13T08:49:05.957Z,99117.06
2023-03-13T08:51:35.416Z,99109.63
2023-03-13T08:54:04.328Z,99103.19
2023-03-13T08:56:34.818Z,99097.78
2023-03-13T08:59:05.979Z,99100.97
2023-03-13T09:01:35.888Z,99078.81
2023-03-13T09:04:05.764Z,99069.50
2023-03-13T09:06:34.139Z,99055.56
2023-03-13T09:09:02.851Z,99053.28
2023-03-13T09:11:31.019Z,99033.38
2023-03-13T09:13:59.753Z,99015.19
2023-03-13T09:16:30.941Z,99015.34
2023-03-13T09:18:59.794Z,99013.06
2023-03-13T09:21:29.931Z,99001.53
2023-03-13T09:23:58.925Z,98996.75
2023-03-13T09:26:28.266Z,98948.16
2023-03-13T09:28:56.772Z,98978.56
2023-03-13T09:31:26.899Z,98972.28
2023-03-13T09:33:56.802Z,98961.97
2023-03-13T09:36:25.490Z,98953.69
2023-03-13T09:38:54.996Z,98944.75
2023-03-13T09:41:31.318Z,98925.72
2023-03-13T09:44:06.586Z,98936.06
2023-03-13T09:46:40.918Z,98921.72
2023-03-13T09:49:18.433Z,98908.22
2023-03-13T09:51:52.085Z,98906.19
2023-03-13T09:54:26.854Z,98894.78
2023-03-13T09:56:58.691Z,98847.03
2023-03-13T09:59:35.554Z,98868.88
2023-03-13T10:02:06.426Z,98868.88
2023-03-13T10:04:42.137Z,98836.13
2023-03-13T10:07:12.478Z,98845.59
2023-03-13T10:09:41.751Z,98854.41
2023-03-13T10:12:17.663Z,98831.69
2023-03-13T10:14:53.757Z,98841.13
2023-03-13T10:17:32.364Z,98798.19
2023-03-13T10:20:10.690Z,98823.06
2023-03-13T10:22:40.369Z,98791.97
2023-03-13T10:25:13.003Z,98808.50
2023-03-13T10:27:45.813Z,98805.63
2023-03-13T10:30:23.915Z,98792.31
2023-03-13T10:32:52.043Z,98791.06
2023-03-13T10:35:26.344Z,98776.06
2023-03-13T10:38:04.665Z,98774.59
2023-03-13T10:40:33.190Z,98764.81
2023-03-13T10:43:04.668Z,98753.56
2023-03-13T10:45:35.494Z,98734.16
2023-03-13T10:48:11.784Z,98734.03
2023-03-13T10:50:44.621Z,98721.75
2023-03-13T10:53:26.988Z,98715.72
2023-03-13T10:55:56.458Z,98707.19
2023-03-13T10:58:31.478Z,98691.38
2023-03-13T11:01:17.307Z,98690.72
2023-03-13T11:03:46.548Z,98674.06
2023-03-13T11:06:29.236Z,98665.13
2023-03-13T11:09:03.106Z,98657.47
2023-03-13T11:11:31.863Z,98648.69
2023-03-13T11:14:10.766Z,98636.25
2023-03-13T11:16:47.796Z,98626.88
2023-03-13T11:19:31.122Z,98621.69
2023-03-13T11:22:18.144Z,98623.09
2023-03-13T11:24:52.081Z,98618.31
2023-03-13T11:27:27.942Z,98610.22
2023-03-13T11:30:06.045Z,98602.13
2023-03-13T11:32:42.229Z,98595.06
2023-03-13T11:35:22.164Z,98583.44
2023-03-13T11:37:56.750Z,98585.09
2023-03-13T11:40:31.193Z,98561.63
2023-03-13T11:43:25.585Z,98553.38
2023-03-13T11:46:10.091Z,98547.13
2023-03-13T11:48:55.015Z,98530.94
2023-03-13T11:51:29.657Z,98509.28
2023-03-13T11:54:24.890Z,98511.00
2023-03-13T11:56:58.045Z,98502.09
2023-03-13T11:59:37.593Z,98475.63
2023-03-13T12:02:16.662Z,98495.88
2023-03-13T12:04:48.376Z,98480.69
2023-03-13T12:07:22.537Z,98458.09
2023-03-13T12:09:56.925Z,98451.84
2023-03-13T12:12:38.904Z,98452.88
2023-03-13T12:15:19.639Z,98431.50
2023-03-13T12:17:51.724Z,98425.28
2023-03-13T12:20:25.050Z,98419.03
2023-03-13T12:22:59.648Z,98418.22
2023-03-13T12:25:34.404Z,98380.44
2023-03-13T12:28:17.005Z,98388.56
2023-03-13T12:30:50.031Z,98385.22
2023-03-13T12:33:25.198Z,98374.41
2023-03-13T12:35:59.728Z,98361.16
2023-03-13T12:38:32.399Z,98345.78
2023-03-13T12:41:13.483Z,98351.19
2023-03-13T12:43:54.345Z,98338.94
2023-03-13T12:46:37.970Z,98328.16
2023-03-13T12:49:44.113Z,98306.75
2023-03-13T12:52:50.558Z,98281.44
2023-03-13T12:55:39.021Z,98279.38
2023-03-13T12:58:30.536Z,98271.06
2023-03-13T13:01:04.640Z,98256.75
2023-03-13T13:03:36.343Z,98244.09
2023-03-13T13:06:10.244Z,98232.28
2023-03-13T13:08:40.803Z,98222.50
2023-03-13T13:11:52.244Z,98199.91
2023-03-13T13:14:57.864Z,98197.41
2023-03-13T13:17:55.217Z,98174.19
2023-03-13T13:20:36.559Z,98161.50
2023-03-13T13:23:39.257Z,98150.72
2023-03-13T13:26:46.963Z,98140.75
2023-03-13T13:29:59.195Z,98104.69
2023-03-13T13:32:42.187Z,98121.25
2023-03-13T13:35:27.695Z,98105.09
2023-03-13T13:38:30.309Z,98088.91
2023-03-13T13:41:03.591Z,98074.56
2023-03-13T13:43:33.666Z,98075.41
2023-03-13T13:46:09.051Z,98057.38
2023-03-13T13:48:39.809Z,98044.28
2023-03-13T13:51:35.068Z,98014.25
2023-03-13T13:54:08.016Z,98024.38
2023-03-13T13:56:46.963Z,98016.28
2023-03-13T13:59:42.228Z,97997.59
2023-03-13T14:02:20.627Z,97995.97
2023-03-13T14:04:56.604Z,97982.69
2023-03-13T14:07:31.725Z,97974.81
2023-03-13T14:10:07.972Z,97950.75
2023-03-13T14:12:37.992Z,97951.16
2023-03-13T14:15:17.006Z,97940.38
2023-03-13T14:17:46.955Z,97924.41
2023-03-13T14:20:33.311Z,97911.97
2023-03-13T14:23:03.595Z,97900.56
2023-03-13T14:25:45.066Z,97891.03
2023-03-13T14:28:21.789Z,97880.88
2023-03-13T14:30:52.195Z,97866.59
2023-03-13T14:33:20.760Z,97855.56
2023-03-13T14:35:49.257Z,97822.03
2023-03-13T14:38:19.567Z,97843.13
2023-03-13T14:40:49.458Z,97830.47
2023-03-13T14:43:24.536Z,97813.47
2023-03-13T14:45:52.977Z,97808.53
2023-03-13T14:48:24.681Z,97793.56
2023-03-13T14:51:14.170Z,97785.47
2023-03-13T14:53:54.876Z,97767.22
2023-03-13T14:56:33.806Z,97752.34
2023-03-13T14:59:09.807Z,97756.22
2023-03-13T15:01:37.810Z,97731.31
2023-03-13T15:04:06.110Z,97724.44
2023-03-13T15:06:34.200Z,97719.66
2023-03-13T15:09:20.251Z,97702.22
2023-03-13T15:11:58.540Z,97656.72
2023-03-13T15:14:41.128Z,97670.84
2023-03-13T15:17:16.071Z,97660.66
2023-03-13T15:19:44.481Z,97569.34
2023-03-13T15:22:15.633Z,97635.13
2023-03-13T15:24:56.110Z,97601.00
2023-03-13T15:27:33.804Z,97605.25
2023-03-13T15:30:01.705Z,97602.72
2023-03-13T15:32:31.868Z,97596.25
2023-03-13T15:35:01.819Z,97579.88
2023-03-13T15:37:30.989Z,97561.81
2023-03-13T15:39:59.178Z,97549.81
2023-03-13T15:42:27.368Z,97545.38
2023-03-13T15:44:56.745Z,97534.38
2023-03-13T15:47:24.786Z,97525.22
2023-03-13T15:49:52.797Z,97518.19
2023-03-13T15:52:22.964Z,97516.09
2023-03-13T15:54:52.289Z,97502.63
2023-03-13T15:57:23.998Z,97483.72
2023-03-13T15:59:52.051Z,97485.00
2023-03-13T16:02:23.246Z,97471.72
2023-03-13T16:04:52.325Z,97453.09
2023-03-13T16:07:21.894Z,97452.25
2023-03-13T16:09:50.139Z,97429.84
2023-03-13T16:12:18.145Z,97419.28
2023-03-13T16:14:46.109Z,97408.50
2023-03-13T16:17:17.548Z,97406.63
2023-03-13T16:19:48.060Z,97381.75
2023-03-13T16:22:17.397Z,97380.13
2023-03-13T16:24:45.346Z,97373.91
2023-03-13T16:27:15.790Z,97370.16
2023-03-13T16:29:43.910Z,97356.88
2023-03-13T16:32:14.208Z,97349.38
2023-03-13T16:34:43.041Z,97333.19
2023-03-13T16:37:14.760Z,97336.50
2023-03-13T16:39:43.016Z,97329.22
2023-03-13T16:42:20.810Z,97313.66
2023-03-13T16:44:48.742Z,97308.03
2023-03-13T16:47:22.156Z,97294.28
2023-03-13T16:49:50.371Z,97296.41
2023-03-13T16:52:19.144Z,97285.03
2023-03-13T16:54:47.458Z,97276.34
2023-03-13T16:57:17.960Z,97274.69
2023-03-13T16:59:47.353Z,97277.84
2023-03-13T17:02:17.003Z,97273.28
2023-03-13T17:04:45.549Z,97260.03
2023-03-13T17:07:19.144Z,97266.47
2023-03-13T17:09:47.700Z,97254.03
2023-03-13T17:12:15.569Z,97253.44
2023-03-13T17:14:43.637Z,97236.69
2023-03-13T17:17:16.295Z,97233.97
2023-03-13T17:19:44.484Z,97242.31
2023-03-13T17:22:13.713Z,97224.22
2023-03-13T17:24:42.483Z,97222.25
2023-03-13T17:27:14.211Z,97205.22
2023-03-13T17:29:42.807Z,97203.59
2023-03-13T17:32:13.448Z,97197.38
2023-03-13T17:34:42.583Z,97187.66
2023-03-13T17:37:15.958Z,97184.94
2023-03-13T17:39:44.699Z,97177.94
2023-03-13T17:42:13.186Z,97176.03
2023-03-13T17:44:42.155Z,97167.34
2023-03-13T17:47:17.732Z,97173.34
2023-03-13T17:49:45.930Z,97163.63
2023-03-13T17:52:15.775Z,97167.16
2023-03-13T17:54:44.684Z,97166.31
2023-03-13T17:57:16.350Z,97160.69
2023-03-13T17:59:44.826Z,97159.06
2023-03-13T18:02:14.264Z,97144.50
2023-03-13T18:04:44.975Z,97155.06
2023-03-13T18:07:18.584Z,97141.59
2023-03-13T18:09:47.907Z,97137.25
2023-03-13T18:12:16.688Z,97127.66
2023-03-13T18:14:45.082Z,97124.47
2023-03-13T18:17:17.864Z,97122.38
2023-03-13T18:19:47.708Z,97105.13
2023-03-13T18:22:17.215Z,97106.78
2023-03-13T18:24:45.584Z,97103.84
2023-03-13T18:27:15.260Z,97094.94
2023-03-13T18:29:43.918Z,97088.72
2023-03-13T18:32:13.991Z,97091.44
2023-03-13T18:34:42.142Z,97085.22
2023-03-13T18:37:21.714Z,97085.22
2023-03-13T18:39:51.266Z,97065.63
2023-03-13T18:42:19.359Z,97079.81
2023-03-13T18:44:47.315Z,97073.34
2023-03-13T18:47:17.537Z,97065.03
2023-03-13T18:49:46.901Z,97063.19
2023-03-13T18:52:17.251Z,97066.19
2023-03-13T18:54:45.562Z,97060.81
2023-03-13T18:57:15.286Z,97058.94
2023-03-13T18:59:43.798Z,97033.50
2023-03-13T19:02:14.555Z,97057.91
2023-03-13T19:04:42.919Z,97048.97
2023-03-13T19:07:17.596Z,97042.28
2023-03-13T19:09:47.292Z,97042.28
2023-03-13T19:12:16.522Z,97036.91
2023-03-13T19:14:44.627Z,97012.41
2023-03-13T19:17:17.876Z,97038.06
2023-03-13T19:19:45.929Z,97037.25
2023-03-13T19:22:16.064Z,97003.50
2023-03-13T19:24:44.144Z,97027.63
2023-03-13T19:27:16.805Z,97022.81
2023-03-13T19:29:45.887Z,97017.41
2023-03-13T19:32:15.376Z,97020.94
2023-03-13T19:34:43.628Z,97019.06
2023-03-13T19:37:12.325Z,97019.63
2023-03-13T19:39:41.933Z,97015.66
2023-03-13T19:42:09.931Z,97014.81
2023-03-13T19:44:40.306Z,97017.53
2023-03-13T19:47:08.278Z,97012.94
2023-03-13T19:49:36.191Z,97013.78
2023-03-13T19:52:04.385Z,97010.03
2023-03-13T19:54:32.301Z,97015.44
2023-03-13T19:57:01.756Z,97007.34
2023-03-13T19:59:31.874Z,97009.78
2023-03-13T20:02:03.020Z,96994.06
2023-03-13T20:04:31.136Z,96999.25
2023-03-13T20:06:59.085Z,96994.63
2023-03-13T20:09:27.075Z,96993.34
2023-03-13T20:11:54.982Z,96994.16
2023-03-13T20:14:24.299Z,96992.06
2023-03-13T20:16:52.269Z,96999.34
2023-03-13T20:19:21.491Z,96931.03
2023-03-13T20:21:49.436Z,96985.59
2023-03-13T20:24:18.032Z,96987.47
2023-03-13T20:26:46.075Z,96975.38
2023-03-13T20:29:14.038Z,96974.56
2023-03-13T20:31:43.392Z,96977.25
2023-03-13T20:34:11.304Z,96971.28
2023-03-13T20:36:39.340Z,96968.03
2023-03-13T20:39:08.320Z,96978.00
2023-03-13T20:41:36.230Z,96970.16
2023-03-13T20:44:04.200Z,96972.00
2023-03-13T20:46:32.179Z,96966.63
2023-03-13T20:49:01.644Z,96962.28
2023-03-13T20:51:29.922Z,96956.31
2023-03-13T20:53:57.945Z,96957.13
2023-03-13T20:56:25.852Z,96952.31
2023-03-13T20:58:53.729Z,96954.78
2023-03-13T21:01:22.484Z,96951.84
2023-03-13T21:03:50.613Z,96954.28
2023-03-13T21:06:20.058Z,96941.63
2023-03-13T21:08:48.110Z,96947.00
2023-03-13T21:11:17.672Z,96941.88
2023-03-13T21:13:45.996Z,96942.69
2023-03-13T21:16:14.732Z,96926.16
2023-03-13T21:18:42.952Z,96932.22
2023-03-13T21:21:14.974Z,96921.59
2023-03-13T21:23:44.614Z,96936.78
2023-03-13T21:26:13.488Z,96919.56
2023-03-13T21:28:41.581Z,96921.44
2023-03-13T21:31:11.300Z,96923.91
2023-03-13T21:33:39.789Z,96925.56
2023-03-13T21:36:08.709Z,96922.84
2023-03-13T21:38:36.961Z,96922.63
2023-03-13T21:41:10.244Z,96915.94
2023-03-13T21:43:38.452Z,96917.81
2023-03-13T21:46:06.945Z,96910.31
2023-03-13T21:48:35.056Z,96912.41
2023-03-13T21:51:03.007Z,96909.72
2023-03-13T21:53:30.996Z,96916.78
2023-03-13T21:55:58.885Z,96909.47
2023-03-13T21:58:28.384Z,96902.19
2023-03-13T22:00:57.362Z,96897.63
2023-03-13T22:03:27.411Z,96904.66
2023-03-13T22:05:55.798Z,96891.97
2023-03-13T22:08:23.805Z,96897.97
2023-03-13T22:10:54.939Z,96895.28
2023-03-13T22:13:23.112Z,96896.06
2023-03-13T22:15:52.779Z,96887.75
2023-03-13T22:18:20.733Z,96891.50
2023-03-13T22:20:48.677Z,96898.28
2023-03-13T22:23:16.757Z,96881.28
2023-03-13T22:25:45.892Z,96886.66
2023-03-13T22:28:14.527Z,96881.03
2023-03-13T22:30:44.781Z,96882.91
2023-03-13T22:33:14.152Z,96881.88
2023-03-13T22:35:42.208Z,96867.78
2023-03-13T22:38:10.198Z,96875.88
2023-03-13T22:40:38.249Z,96874.25
2023-03-13T22:43:06.292Z,96868.84
2023-03-13T22:45:34.168Z,96868.59
2023-03-13T22:48:06.185Z,96865.91
2023-03-13T22:50:36.200Z,96871.06
2023-03-13T22:53:04.517Z,96860.28
2023-03-13T22:55:33.211Z,96869.19
2023-03-13T22:58:01.248Z,96853.81
2023-03-13T23:00:29.284Z,96858.41
2023-03-13T23:02:57.133Z,96859.19
2023-03-13T23:05:25.057Z,96848.41
2023-03-13T23:07:54.416Z,96849.50
2023-03-13T23:10:22.511Z,96857.81
2023-03-13T23:12:50.453Z,96852.00
2023-03-13T23:15:18.615Z,96854.78
2023-03-13T23:17:46.560Z,96857.50
2023-03-13T23:20:14.988Z,96851.50
2023-03-13T23:22:44.213Z,96848.81
2023-03-13T23:25:14.495Z,96848.22
2023-03-13T23:27:42.996Z,96852.22
2023-03-13T23:30:13.907Z,96838.88
2023-03-13T23:32:44.174Z,96846.53
2023-03-13T23:35:13.417Z,96849.41
2023-03-13T23:37:41.331Z,96852.38
2023-03-13T23:40:11.852Z,96844.97
2023-03-13T23:42:41.246Z,96854.47
2023-03-13T23:45:09.649Z,96849.31
2023-03-13T23:47:37.584Z,96849.56
2023-03-13T23:50:06.825Z,96840.66
2023-03-13T23:52:35.267Z,96843.56
2023-03-13T23:55:04.453Z,96841.13
2023-03-13T23:57:33.017Z,96844.09
